Aérodrome :
LOGIN :

S'inscrire | Disclaimer

   EN    FR    IT 

 










Légende :    VFR   VFR Marginal   IFR   IFR Intensif   IFR Très Intensif
Visi : 
Plafond : 
>= 8 km
>= 3000ft
5 à 8 km
1000 à 3000 ft
1500m à 5 km
500 à 1000 ft
800 à 1500m
200 à 500 ft
< 800m
< 200 ft
Symboles :   Orages  Brouillard  Fortes neiges  Fortes précipitations  Vent > 20 kt
SIGMETs :   Divers  Orages  Givrage  Turbulence  Onde Orograph.  Cendres Volcan.







- Altitude de l'aérodrome : 776 ft
- Code IATA : RMS


ETAR - Ramstein Air Base

DERNIER METAR :
  • 250428Z COR 00000KT 9999 CLR 12/12 A3009 RMK AO2 SLP185 $ COR 0431

METARs EXPIRÉS :
  • 250418Z AUTO 00000KT 1600 R08/1300VP1500 BR CLR 11/10 A3009 RMK AO2 VIS 1600V4400 SLP185 $
  • 250356Z AUTO 00000KT 9999 CLR 12/12 A3009 RMK AO2 SLP184 T01200115 $
  • 250256Z 00000KT 6000 BR CLR 13/13 A3008 RMK AO2A VIS 3600V6000 SLP181 T01290129 56002 $
  • 250156Z AUTO 00000KT 9999 BR CLR 12/11 A3008 RMK AO2 SLP181 T01150112 $

TAF TAF ETAR
Valide du 25 à 02h jusqu'au 26 à 08h UTC


250201Z 2502/2608 VRB06KT 9999 SCT060 QNH3009INS
BECMG 2510/2511 03009KT 9999 SCT050 QNH3007INS TX31/2514Z TN08/2601Z
Pas de NOTAMs connus pour ce terrain.



MET'MAP, la Météo Aéronautique d'un coup d'oeil ! - Copyright ORBIFLY Décembre 2007 - Disclaimer

ORBIFLY MET'MAP TEAM :

Programmation & Développement : Alexandra Zaïnal
Conception & Développement : Baudouin d'Aumeries
Co-Programmation & Développement : Marc-Olivier Méhu
Soutien technique & logistique : Manuel Goepfert

Contact : metmap@orbifly.com




SOURCES & CREDITS :

   NOAA